createdAt,value
2023-05-11T00:00:11.363Z,11.15
2023-05-11T00:02:40.238Z,11.15
2023-05-11T00:05:09.415Z,11.18
2023-05-11T00:07:38.076Z,11.19
2023-05-11T00:10:07.537Z,11.21
2023-05-11T00:12:36.695Z,11.23
2023-05-11T00:15:05.774Z,11.25
2023-05-11T00:17:35.522Z,11.21
2023-05-11T00:20:04.358Z,11.17
2023-05-11T00:22:32.670Z,11.15
2023-05-11T00:25:01.031Z,11.14
2023-05-11T00:27:29.390Z,11.13
2023-05-11T00:29:58.133Z,11.10
2023-05-11T00:32:28.103Z,11.10
2023-05-11T00:34:57.838Z,11.10
2023-05-11T00:37:29.558Z,11.07
2023-05-11T00:39:57.931Z,11.03
2023-05-11T00:42:28.498Z,11.02
2023-05-11T00:44:56.864Z,10.99
2023-05-11T00:47:27.718Z,11.03
2023-05-11T00:49:57.821Z,11.05
2023-05-11T00:52:28.737Z,11.05
2023-05-11T00:54:57.099Z,11.04
2023-05-11T00:57:26.908Z,11.02
2023-05-11T00:59:55.256Z,11.03
2023-05-11T01:02:23.812Z,11.06
2023-05-11T01:04:52.880Z,11.08
2023-05-11T01:07:28.199Z,11.05
2023-05-11T01:10:02.417Z,11.04
2023-05-11T01:12:37.361Z,11.02
2023-05-11T01:15:11.732Z,11.01
2023-05-11T01:17:47.319Z,11.00
2023-05-11T01:20:19.918Z,10.99
2023-05-11T01:23:18.152Z,11.02
2023-05-11T01:26:22.290Z,10.99
2023-05-11T01:29:11.758Z,11.03
2023-05-11T01:31:43.992Z,11.06
2023-05-11T01:34:18.179Z,11.06
2023-05-11T01:36:53.399Z,11.09
2023-05-11T01:39:36.324Z,11.12
2023-05-11T01:42:09.377Z,11.13
2023-05-11T01:44:41.101Z,11.13
2023-05-11T01:47:12.997Z,11.14
2023-05-11T01:49:45.068Z,11.14
2023-05-11T01:52:15.402Z,11.15
2023-05-11T01:54:45.623Z,11.17
2023-05-11T01:57:15.121Z,11.15
2023-05-11T01:59:43.877Z,11.13
2023-05-11T02:02:16.609Z,11.13
2023-05-11T02:04:45.877Z,11.07
2023-05-11T02:07:17.376Z,11.00
2023-05-11T02:09:47.025Z,10.95
2023-05-11T02:12:18.930Z,10.89
2023-05-11T02:14:48.601Z,10.82
2023-05-11T02:17:31.658Z,10.73
2023-05-11T02:20:01.996Z,10.72
2023-05-11T02:22:31.931Z,10.74
2023-05-11T02:25:00.336Z,10.71
2023-05-11T02:27:29.192Z,10.69
2023-05-11T02:29:57.654Z,10.70
2023-05-11T02:32:31.881Z,10.69
2023-05-11T02:35:06.408Z,10.69
2023-05-11T02:37:40.499Z,10.67
2023-05-11T02:40:16.487Z,10.68
2023-05-11T02:42:49.961Z,10.67
2023-05-11T02:45:20.499Z,10.67
2023-05-11T02:47:55.178Z,10.67
2023-05-11T02:50:25.594Z,10.63
2023-05-11T02:52:57.981Z,10.61
2023-05-11T02:55:31.038Z,10.62
2023-05-11T02:57:59.888Z,10.60
2023-05-11T03:00:29.647Z,10.54
2023-05-11T03:02:59.793Z,10.53
2023-05-11T03:05:29.603Z,10.53
2023-05-11T03:08:00.590Z,10.52
2023-05-11T03:10:30.166Z,10.49
2023-05-11T03:12:58.982Z,10.51
2023-05-11T03:15:29.611Z,10.53
2023-05-11T03:18:01.149Z,10.53
2023-05-11T03:20:32.835Z,10.53
2023-05-11T03:23:02.631Z,10.54
2023-05-11T03:25:31.314Z,10.52
2023-05-11T03:28:01.513Z,10.48
2023-05-11T03:30:31.094Z,10.47
2023-05-11T03:33:00.926Z,10.41
2023-05-11T03:35:32.411Z,10.35
2023-05-11T03:38:01.305Z,10.29
2023-05-11T03:40:33.379Z,10.28
2023-05-11T03:43:05.115Z,10.25
2023-05-11T03:45:35.033Z,10.22
2023-05-11T03:48:06.146Z,10.21
2023-05-11T03:50:35.452Z,10.21
2023-05-11T03:53:05.430Z,10.20
2023-05-11T03:55:34.037Z,10.22
2023-05-11T03:58:04.264Z,10.23
2023-05-11T04:00:33.011Z,10.27
2023-05-11T04:03:06.228Z,10.33
2023-05-11T04:05:34.723Z,10.36
2023-05-11T04:08:04.114Z,10.38
2023-05-11T04:10:32.612Z,10.39
2023-05-11T04:13:00.967Z,10.39
2023-05-11T04:15:30.987Z,10.37
2023-05-11T04:17:59.380Z,10.40
2023-05-11T04:20:30.707Z,10.44
2023-05-11T04:22:59.075Z,10.47
2023-05-11T04:25:28.881Z,10.50
2023-05-11T04:27:57.357Z,10.50
2023-05-11T04:30:25.762Z,10.50
2023-05-11T04:32:54.309Z,10.50
2023-05-11T04:35:23.727Z,10.46
2023-05-11T04:37:53.413Z,10.44
2023-05-11T04:40:21.787Z,10.42
2023-05-11T04:42:51.768Z,10.32
2023-05-11T04:45:20.365Z,10.30
2023-05-11T04:47:48.786Z,10.31
2023-05-11T04:50:17.475Z,10.29
2023-05-11T04:52:46.184Z,10.29
2023-05-11T04:55:16.256Z,10.29
2023-05-11T04:57:44.630Z,10.33
2023-05-11T05:00:13.579Z,10.30
2023-05-11T05:02:42.057Z,10.32
2023-05-11T05:05:11.310Z,10.33
2023-05-11T05:07:41.223Z,10.31
2023-05-11T05:10:12.052Z,10.27
2023-05-11T05:12:41.938Z,10.24
2023-05-11T05:15:11.433Z,10.20
2023-05-11T05:17:39.839Z,10.17
2023-05-11T05:20:09.426Z,10.16
2023-05-11T05:22:37.818Z,10.12
2023-05-11T05:25:07.045Z,10.08
2023-05-11T05:27:35.763Z,10.07
2023-05-11T05:30:06.696Z,10.05
2023-05-11T05:32:35.079Z,10.05
2023-05-11T05:35:04.112Z,10.02
2023-05-11T05:37:32.845Z,10.00
2023-05-11T05:40:01.172Z,10.03
2023-05-11T05:42:32.404Z,10.05
2023-05-11T05:45:00.931Z,10.05
2023-05-11T05:47:31.196Z,10.05
2023-05-11T05:49:59.679Z,10.03
2023-05-11T05:52:28.061Z,10.03
2023-05-11T05:54:56.503Z,10.03
2023-05-11T05:57:25.018Z,10.03
2023-05-11T05:59:53.423Z,10.08
2023-05-11T06:02:21.918Z,10.04
2023-05-11T06:04:51.735Z,10.04
2023-05-11T06:07:20.156Z,10.04
2023-05-11T06:09:48.505Z,10.08
2023-05-11T06:12:16.874Z,10.09
2023-05-11T06:14:45.231Z,10.03
2023-05-11T06:17:13.624Z,10.05
2023-05-11T06:19:42.533Z,10.08
2023-05-11T06:22:12.254Z,10.12
2023-05-11T06:24:40.628Z,10.12
2023-05-11T06:27:09.158Z,10.10
2023-05-11T06:29:38.234Z,10.10
2023-05-11T06:32:07.432Z,10.10
2023-05-11T06:34:35.890Z,10.13
2023-05-11T06:37:04.379Z,10.13
2023-05-11T06:39:37.643Z,10.14
2023-05-11T06:42:06.928Z,10.17
2023-05-11T06:44:38.631Z,10.18
2023-05-11T06:47:08.231Z,10.17
2023-05-11T06:49:36.924Z,10.19
2023-05-11T06:52:05.324Z,10.20
2023-05-11T06:54:43.969Z,10.25
2023-05-11T06:57:14.416Z,10.30
2023-05-11T06:59:44.004Z,10.30
2023-05-11T07:02:12.480Z,10.31
2023-05-11T07:04:40.888Z,10.31
2023-05-11T07:07:11.280Z,10.30
2023-05-11T07:09:41.902Z,10.34
2023-05-11T07:12:12.169Z,10.41
2023-05-11T07:14:40.548Z,10.41
2023-05-11T07:17:09.305Z,10.37
2023-05-11T07:19:37.732Z,10.40
2023-05-11T07:22:06.239Z,10.40
2023-05-11T07:24:34.674Z,10.40
2023-05-11T07:27:03.030Z,10.41
2023-05-11T07:29:32.939Z,10.44
2023-05-11T07:32:01.385Z,10.45
2023-05-11T07:34:31.495Z,10.49
2023-05-11T07:36:59.984Z,10.49
2023-05-11T07:39:28.365Z,10.47
2023-05-11T07:41:56.776Z,10.48
2023-05-11T07:44:35.069Z,10.50
2023-05-11T07:47:03.460Z,10.49
2023-05-11T07:49:42.877Z,10.47
2023-05-11T07:52:12.162Z,10.40
2023-05-11T07:54:40.985Z,10.42
2023-05-11T07:57:11.320Z,10.44
2023-05-11T07:59:41.636Z,10.44
2023-05-11T08:02:12.933Z,10.45
2023-05-11T08:04:41.894Z,10.48
2023-05-11T08:07:10.330Z,10.50
2023-05-11T08:09:38.816Z,10.57
2023-05-11T08:12:07.496Z,10.63
2023-05-11T08:14:36.121Z,10.67
2023-05-11T08:17:06.353Z,10.68
2023-05-11T08:19:34.822Z,10.73
2023-05-11T08:22:03.280Z,10.80
2023-05-11T08:24:33.489Z,10.87
2023-05-11T08:27:02.805Z,10.98
2023-05-11T08:29:32.690Z,11.09
2023-05-11T08:32:01.342Z,11.20
2023-05-11T08:34:33.683Z,11.28
2023-05-11T08:37:03.043Z,11.35
2023-05-11T08:39:46.095Z,11.43
2023-05-11T08:42:17.681Z,11.52
2023-05-11T08:44:46.213Z,11.68
2023-05-11T08:47:21.868Z,11.83
2023-05-11T08:49:54.079Z,11.93
2023-05-11T08:52:22.508Z,12.00
2023-05-11T08:54:51.077Z,12.08
2023-05-11T08:57:20.295Z,12.15
2023-05-11T08:59:50.329Z,12.17
2023-05-11T09:02:20.989Z,12.21
2023-05-11T09:04:52.834Z,12.24
2023-05-11T09:07:22.910Z,12.26
2023-05-11T09:09:51.324Z,12.33
2023-05-11T09:12:20.757Z,12.37
2023-05-11T09:14:49.574Z,12.38
2023-05-11T09:17:18.032Z,12.41
2023-05-11T09:20:01.125Z,12.48
2023-05-11T09:22:32.067Z,12.53
2023-05-11T09:25:03.568Z,12.56
2023-05-11T09:27:34.163Z,12.52
2023-05-11T09:30:12.425Z,12.50
2023-05-11T09:32:51.741Z,12.46
2023-05-11T09:35:25.733Z,12.41
2023-05-11T09:38:06.391Z,12.38
2023-05-11T09:40:36.849Z,12.34
2023-05-11T09:43:17.228Z,12.36
2023-05-11T09:45:47.380Z,12.41
2023-05-11T09:48:26.893Z,12.43
2023-05-11T09:51:03.490Z,12.43
2023-05-11T09:53:40.917Z,12.45
2023-05-11T09:56:09.960Z,12.42
2023-05-11T09:58:54.418Z,12.38
2023-05-11T10:01:30.955Z,12.35
2023-05-11T10:04:17.782Z,12.34
2023-05-11T10:06:53.015Z,12.38
2023-05-11T10:09:25.557Z,12.43
2023-05-11T10:11:54.948Z,12.48
2023-05-11T10:14:25.441Z,12.49
2023-05-11T10:16:54.980Z,12.49
2023-05-11T10:19:23.690Z,12.50
2023-05-11T10:21:54.470Z,12.56
2023-05-11T10:24:23.201Z,12.62
2023-05-11T10:26:52.014Z,12.67
2023-05-11T10:29:20.825Z,12.75
2023-05-11T10:31:51.120Z,12.76
2023-05-11T10:34:23.268Z,12.62
2023-05-11T10:36:53.923Z,12.62
2023-05-11T10:39:22.730Z,12.61
2023-05-11T10:42:04.566Z,12.54
2023-05-11T10:44:57.299Z,12.33
2023-05-11T10:47:47.575Z,12.31
2023-05-11T10:50:29.438Z,12.31
2023-05-11T10:53:23.500Z,12.39
2023-05-11T10:56:10.103Z,12.43
2023-05-11T10:58:59.113Z,12.32
2023-05-11T11:01:38.220Z,12.31
2023-05-11T11:04:09.080Z,12.41
2023-05-11T11:06:39.047Z,12.33
2023-05-11T11:09:13.615Z,12.28
2023-05-11T11:11:46.030Z,12.18
2023-05-11T11:14:16.307Z,12.05
2023-05-11T11:17:23.993Z,11.97
2023-05-11T11:19:52.588Z,11.87
2023-05-11T11:22:47.509Z,11.81
2023-05-11T11:25:54.077Z,11.74
2023-05-11T11:28:22.565Z,11.69
2023-05-11T11:31:27.625Z,11.70
2023-05-11T11:33:58.999Z,11.74
2023-05-11T11:37:03.732Z,11.74
2023-05-11T11:40:09.016Z,11.80
2023-05-11T11:42:44.766Z,11.83
2023-05-11T11:45:34.770Z,11.87
2023-05-11T11:48:13.294Z,11.82
2023-05-11T11:50:46.983Z,11.89
2023-05-11T11:53:53.056Z,11.98
2023-05-11T11:56:41.507Z,11.97
2023-05-11T11:59:14.126Z,11.95
2023-05-11T12:01:43.987Z,12.04
2023-05-11T12:04:42.045Z,12.07
2023-05-11T12:07:13.321Z,12.12
2023-05-11T12:09:44.690Z,12.16
2023-05-11T12:12:13.812Z,12.18
2023-05-11T12:14:49.075Z,12.10
2023-05-11T12:17:25.585Z,12.11
2023-05-11T12:19:54.096Z,12.04
2023-05-11T12:22:26.608Z,12.00
2023-05-11T12:25:00.510Z,11.94
2023-05-11T12:27:29.142Z,11.96
2023-05-11T12:29:59.592Z,11.98
2023-05-11T12:32:29.258Z,11.99
2023-05-11T12:35:02.277Z,11.97
2023-05-11T12:37:31.556Z,11.99
2023-05-11T12:40:00.586Z,12.05
2023-05-11T12:42:29.125Z,11.99
2023-05-11T12:44:58.978Z,12.05
2023-05-11T12:47:27.598Z,12.05
2023-05-11T12:49:56.177Z,11.99
2023-05-11T12:52:25.996Z,12.01
2023-05-11T12:55:00.242Z,11.97
2023-05-11T12:57:31.014Z,11.99
2023-05-11T13:00:12.852Z,11.93
2023-05-11T13:02:51.167Z,11.95
2023-05-11T13:05:24.122Z,12.04
2023-05-11T13:07:58.792Z,12.06
2023-05-11T13:10:27.935Z,12.07
2023-05-11T13:12:56.849Z,12.00
2023-05-11T13:15:28.504Z,11.93
2023-05-11T13:17:59.278Z,11.91
2023-05-11T13:20:29.791Z,11.99
2023-05-11T13:23:06.572Z,12.06
2023-05-11T13:25:37.349Z,12.12
2023-05-11T13:28:05.921Z,12.18
2023-05-11T13:30:36.916Z,12.21
2023-05-11T13:33:05.411Z,12.25
2023-05-11T13:35:33.849Z,12.26
2023-05-11T13:38:07.370Z,12.29
2023-05-11T13:40:37.346Z,12.33
2023-05-11T13:43:14.528Z,12.36
2023-05-11T13:45:44.432Z,12.39
2023-05-11T13:48:12.798Z,12.40
2023-05-11T13:50:41.419Z,12.37
2023-05-11T13:53:11.643Z,12.42
2023-05-11T13:55:43.476Z,12.47
2023-05-11T13:58:12.063Z,12.46
2023-05-11T14:00:41.072Z,12.47
2023-05-11T14:03:11.580Z,12.50
2023-05-11T14:05:41.267Z,12.48
2023-05-11T14:08:09.793Z,12.44
2023-05-11T14:10:38.276Z,12.45
2023-05-11T14:13:07.184Z,12.46
2023-05-11T14:15:38.454Z,12.47
2023-05-11T14:18:08.128Z,12.45
2023-05-11T14:20:40.753Z,12.45
2023-05-11T14:23:09.457Z,12.46
2023-05-11T14:25:38.094Z,12.46
2023-05-11T14:28:06.831Z,12.40
2023-05-11T14:30:37.857Z,12.37
2023-05-11T14:33:06.427Z,12.34
2023-05-11T14:35:35.717Z,12.32
2023-05-11T14:38:06.970Z,12.33
2023-05-11T14:40:36.532Z,12.35
2023-05-11T14:43:05.181Z,12.36
2023-05-11T14:45:33.826Z,12.36
2023-05-11T14:48:02.354Z,12.39
2023-05-11T14:50:30.782Z,12.40
2023-05-11T14:52:59.208Z,12.39
2023-05-11T14:55:29.181Z,12.40
2023-05-11T14:57:57.566Z,12.40
2023-05-11T15:00:26.817Z,12.34
2023-05-11T15:02:55.218Z,12.34
2023-05-11T15:05:23.685Z,12.31
2023-05-11T15:07:52.273Z,12.31
2023-05-11T15:10:20.682Z,12.30
2023-05-11T15:12:54.162Z,12.33
2023-05-11T15:15:22.554Z,12.32
2023-05-11T15:17:51.041Z,12.29
2023-05-11T15:20:19.860Z,12.26
2023-05-11T15:22:48.218Z,12.24
2023-05-11T15:25:16.866Z,12.20
2023-05-11T15:27:45.773Z,12.15
2023-05-11T15:30:16.520Z,12.12
2023-05-11T15:32:45.228Z,12.10
2023-05-11T15:35:14.972Z,12.10
2023-05-11T15:37:43.382Z,12.10
2023-05-11T15:40:13.939Z,12.11
2023-05-11T15:42:42.602Z,12.09
2023-05-11T15:45:11.118Z,12.07
2023-05-11T15:47:40.897Z,12.08
2023-05-11T15:50:09.483Z,12.06
2023-05-11T15:52:40.251Z,12.06
2023-05-11T15:55:09.381Z,12.06
2023-05-11T15:57:39.084Z,12.04
2023-05-11T16:00:10.355Z,12.02
2023-05-11T16:02:40.808Z,11.99
2023-05-11T16:05:09.896Z,12.01
2023-05-11T16:07:40.494Z,12.02
2023-05-11T16:10:09.969Z,12.06
2023-05-11T16:12:38.953Z,12.07
2023-05-11T16:15:08.949Z,12.05
2023-05-11T16:17:39.528Z,12.02
2023-05-11T16:20:10.375Z,12.01
2023-05-11T16:22:39.926Z,12.01
2023-05-11T16:25:09.255Z,12.02
2023-05-11T16:27:39.237Z,12.05
2023-05-11T16:30:22.333Z,12.07
2023-05-11T16:32:52.751Z,12.08
2023-05-11T16:35:22.686Z,12.04
2023-05-11T16:37:52.525Z,12.02
2023-05-11T16:40:21.732Z,12.01
2023-05-11T16:42:50.334Z,11.99
2023-05-11T16:45:18.778Z,11.97
2023-05-11T16:47:47.245Z,11.96
2023-05-11T16:50:16.585Z,11.96
2023-05-11T16:52:46.548Z,11.96
2023-05-11T16:55:16.001Z,11.93
2023-05-11T16:57:45.002Z,11.92
2023-05-11T17:00:15.310Z,11.90
2023-05-11T17:02:43.777Z,11.89
2023-05-11T17:05:13.643Z,11.89
2023-05-11T17:07:44.831Z,11.93
2023-05-11T17:10:14.629Z,11.93
2023-05-11T17:12:43.023Z,11.93
2023-05-11T17:15:11.864Z,11.96
2023-05-11T17:17:41.095Z,11.95
2023-05-11T17:20:13.802Z,11.92
2023-05-11T17:22:42.203Z,11.89
2023-05-11T17:25:11.042Z,11.91
2023-05-11T17:27:42.151Z,11.93
2023-05-11T17:30:11.390Z,11.95
2023-05-11T17:32:46.657Z,11.96
2023-05-11T17:35:15.649Z,11.96
2023-05-11T17:37:44.022Z,11.92
2023-05-11T17:40:13.142Z,11.90
2023-05-11T17:42:43.344Z,11.87
2023-05-11T17:45:12.892Z,11.87
2023-05-11T17:47:41.334Z,11.85
2023-05-11T17:50:10.581Z,11.85
2023-05-11T17:52:40.088Z,11.84
2023-05-11T17:55:10.900Z,11.83
2023-05-11T17:57:41.278Z,11.85
2023-05-11T18:00:12.609Z,11.85
2023-05-11T18:02:41.247Z,11.80
2023-05-11T18:05:10.241Z,11.78
2023-05-11T18:07:39.881Z,11.76
2023-05-11T18:10:10.297Z,11.76
2023-05-11T18:12:39.057Z,11.77
2023-05-11T18:15:08.405Z,11.76
2023-05-11T18:17:40.350Z,11.75
2023-05-11T18:20:10.293Z,11.74
2023-05-11T18:22:41.060Z,11.73
2023-05-11T18:25:09.915Z,11.72
2023-05-11T18:27:40.757Z,11.74
2023-05-11T18:30:10.169Z,11.73
2023-05-11T18:32:42.506Z,11.70
2023-05-11T18:35:10.878Z,11.67
2023-05-11T18:37:41.867Z,11.67
2023-05-11T18:40:11.191Z,11.67
2023-05-11T18:42:42.354Z,11.70
2023-05-11T18:45:11.894Z,11.69
2023-05-11T18:47:46.266Z,11.67
2023-05-11T18:50:15.057Z,11.67
2023-05-11T18:52:43.505Z,11.68
2023-05-11T18:55:11.877Z,11.65
2023-05-11T18:57:49.180Z,11.57
2023-05-11T19:00:18.415Z,11.52
2023-05-11T19:02:49.043Z,11.53
2023-05-11T19:05:17.680Z,11.51
2023-05-11T19:07:46.058Z,11.50
2023-05-11T19:10:14.687Z,11.48
2023-05-11T19:12:43.049Z,11.49
2023-05-11T19:15:11.678Z,11.48
2023-05-11T19:17:42.112Z,11.46
2023-05-11T19:20:12.875Z,11.44
2023-05-11T19:22:41.794Z,11.40
2023-05-11T19:25:11.025Z,11.40
2023-05-11T19:27:41.943Z,11.41
2023-05-11T19:30:10.935Z,11.41
2023-05-11T19:32:42.281Z,11.40
2023-05-11T19:35:14.699Z,11.37
2023-05-11T19:37:43.282Z,11.37
2023-05-11T19:40:43.979Z,11.42
2023-05-11T19:43:02.831Z,11.41
2023-05-11T19:45:33.210Z,11.39
2023-05-11T19:48:01.741Z,11.38
2023-05-11T19:50:31.659Z,11.39
2023-05-11T19:53:00.032Z,11.40
2023-05-11T19:55:28.435Z,11.41
2023-05-11T19:58:03.508Z,11.40
2023-05-11T20:00:32.201Z,11.39
2023-05-11T20:03:01.151Z,11.37
2023-05-11T20:05:31.060Z,11.38
2023-05-11T20:07:59.579Z,11.37
2023-05-11T20:10:28.055Z,11.36
2023-05-11T20:12:57.729Z,11.35
2023-05-11T20:15:26.248Z,11.33
2023-05-11T20:17:54.622Z,11.33
2023-05-11T20:20:23.081Z,11.34
2023-05-11T20:22:53.071Z,11.35
2023-05-11T20:25:21.823Z,11.38
2023-05-11T20:28:00.913Z,11.39
2023-05-11T20:30:29.297Z,11.40
2023-05-11T20:35:29.155Z,11.42
2023-05-11T20:37:58.919Z,11.39
2023-05-11T20:40:27.393Z,11.38
2023-05-11T20:42:55.812Z,11.42
2023-05-11T20:45:24.186Z,11.38
2023-05-11T20:47:52.769Z,11.37
2023-05-11T20:50:21.872Z,11.40
2023-05-11T20:52:50.421Z,11.43
2023-05-11T20:55:22.875Z,11.46
2023-05-11T20:57:51.257Z,11.45
2023-05-11T21:00:20.691Z,11.45
2023-05-11T21:02:49.338Z,11.45
2023-05-11T21:05:23.556Z,11.48
2023-05-11T21:07:53.919Z,11.45
2023-05-11T21:10:24.024Z,11.46
2023-05-11T21:12:52.404Z,11.43
2023-05-11T21:15:20.785Z,11.41
2023-05-11T21:17:50.284Z,11.37
2023-05-11T21:20:19.026Z,11.37
2023-05-11T21:22:47.630Z,11.39
2023-05-11T21:25:16.093Z,11.40
2023-05-11T21:27:45.925Z,11.40
2023-05-11T21:30:15.127Z,11.37
2023-05-11T21:32:43.838Z,11.36
2023-05-11T21:35:14.922Z,11.36
2023-05-11T21:37:49.100Z,11.37
2023-05-11T21:40:17.990Z,11.36
2023-05-11T21:42:52.395Z,11.32
2023-05-11T21:45:21.433Z,11.33
2023-05-11T21:47:49.937Z,11.31
2023-05-11T21:50:18.778Z,11.33
2023-05-11T21:52:47.295Z,11.32
2023-05-11T21:55:15.772Z,11.32
2023-05-11T21:57:45.761Z,11.26
2023-05-11T22:00:18.798Z,11.24
2023-05-11T22:02:47.481Z,11.22
2023-05-11T22:05:16.501Z,11.18
2023-05-11T22:07:45.007Z,11.11
2023-05-11T22:10:13.627Z,11.04
2023-05-11T22:12:43.567Z,10.95
2023-05-11T22:15:13.059Z,10.86
2023-05-11T22:17:43.613Z,10.81
2023-05-11T22:20:12.318Z,10.78
2023-05-11T22:22:49.942Z,10.80
2023-05-11T22:25:18.370Z,10.80
2023-05-11T22:27:46.802Z,10.77
2023-05-11T22:30:15.422Z,10.75
2023-05-11T22:32:51.084Z,10.74
2023-05-11T22:35:19.502Z,10.76
2023-05-11T22:37:48.136Z,10.74
2023-05-11T22:40:16.766Z,10.70
2023-05-11T22:42:45.277Z,10.70
2023-05-11T22:45:13.727Z,10.76
2023-05-11T22:47:43.280Z,10.77
2023-05-11T22:50:13.215Z,10.74
2023-05-11T22:52:43.862Z,10.70
2023-05-11T22:55:12.318Z,10.63
2023-05-11T22:57:40.664Z,10.60
2023-05-11T23:00:10.813Z,10.63
2023-05-11T23:02:40.371Z,10.67
2023-05-11T23:05:09.578Z,10.66
2023-05-11T23:07:39.329Z,10.58
2023-05-11T23:10:08.890Z,10.55
2023-05-11T23:12:37.311Z,10.53
2023-05-11T23:15:06.811Z,10.51
2023-05-11T23:17:40.781Z,10.48
2023-05-11T23:20:10.412Z,10.47
2023-05-11T23:22:40.141Z,10.42
2023-05-11T23:25:10.479Z,10.39
2023-05-11T23:27:39.030Z,10.32
2023-05-11T23:30:09.102Z,10.28
2023-05-11T23:32:37.782Z,10.21
2023-05-11T23:35:06.994Z,10.17
2023-05-11T23:37:35.535Z,10.13
2023-05-11T23:40:05.888Z,10.11
2023-05-11T23:42:34.262Z,10.08
2023-05-11T23:45:04.570Z,10.09
2023-05-11T23:47:33.036Z,10.15
2023-05-11T23:50:02.124Z,10.16
2023-05-11T23:52:30.776Z,10.16
2023-05-11T23:54:59.138Z,10.12
2023-05-11T23:57:28.859Z,10.12
2023-05-11T23:59:57.447Z,10.09
